Time;durP1;ratioP1;P1;durP2;ratioP2;P2;SDS_P1;SDS_P2;PMS_P1;PMS_P2;Temp;Humidity;BMP_temperature;BMP_pressure;BME280_temperature;BME280_humidity;BME280_pressure;Samples;Min_cycle;Max_cycle;Signal;HPM_P1;HPM_P2
2021/01/21 00:01:29;;;;;;;8.03;6.27;;;;;;;4.40;60.67;94404.31;5011426;28;20230;-77
2021/01/21 00:03:55;;;;;;;7.83;6.10;;;;;;;4.42;61.04;94402.38;5011359;28;20261;-76
2021/01/21 00:06:21;;;;;;;7.80;6.47;;;;;;;4.35;61.37;94399.69;5029774;28;20202;-76
2021/01/21 00:08:47;;;;;;;7.43;6.20;;;;;;;4.30;61.15;94389.22;5030981;28;20213;-77
2021/01/21 00:11:13;;;;;;;8.20;5.83;;;;;;;4.35;61.31;94378.53;5030637;28;20273;-76
2021/01/21 00:13:40;;;;;;;7.77;6.10;;;;;;;4.36;60.82;94377.56;5030600;28;20615;-76
2021/01/21 00:16:06;;;;;;;7.60;5.93;;;;;;;4.29;61.02;94366.44;5031047;28;20198;-76
2021/01/21 00:18:32;;;;;;;7.63;6.30;;;;;;;4.31;61.21;94367.06;5030974;28;20245;-77
2021/01/21 00:20:58;;;;;;;8.10;5.57;;;;;;;4.34;61.10;94364.19;5030840;28;20785;-76
2021/01/21 00:23:24;;;;;;;7.03;5.93;;;;;;;4.38;60.84;94362.91;5030896;28;20202;-76
2021/01/21 00:25:50;;;;;;;7.43;6.17;;;;;;;4.39;60.76;94356.84;5030464;28;20202;-76
2021/01/21 00:28:17;;;;;;;7.93;6.53;;;;;;;4.45;60.79;94358.69;5030253;28;20285;-76
2021/01/21 00:30:44;;;;;;;9.10;6.10;;;;;;;4.45;61.01;94353.59;5030889;28;20214;-77
2021/01/21 00:33:10;;;;;;;6.37;5.17;;;;;;;4.54;60.50;94359.47;5031235;28;20202;-76
2021/01/21 00:35:36;;;;;;;7.73;5.90;;;;;;;4.61;60.32;94352.72;5030261;28;20265;-76
2021/01/21 00:38:03;;;;;;;7.20;5.17;;;;;;;4.71;59.50;94348.19;5030720;28;20233;-76
2021/01/21 00:40:29;;;;;;;5.90;4.30;;;;;;;4.79;59.18;94338.72;5029905;28;20218;-76
2021/01/21 00:42:54;;;;;;;4.37;3.70;;;;;;;4.84;57.49;94333.88;5030547;28;20592;-77
2021/01/21 00:45:21;;;;;;;6.13;3.33;;;;;;;4.87;56.95;94330.19;5029999;28;20202;-77
2021/01/21 00:47:47;;;;;;;3.73;3.00;;;;;;;4.95;56.54;94337.78;5030580;28;20207;-77
2021/01/21 00:50:13;;;;;;;4.17;3.30;;;;;;;5.04;56.90;94330.84;5030495;28;20225;-77
2021/01/21 00:52:39;;;;;;;3.13;2.83;;;;;;;5.12;55.78;94328.25;5030828;28;20252;-76
2021/01/21 00:55:06;;;;;;;2.90;2.60;;;;;;;5.19;55.58;94327.38;5030247;28;20721;-77
2021/01/21 00:57:32;;;;;;;3.00;2.70;;;;;;;5.22;55.13;94321.91;5029845;28;20272;-77
2021/01/21 00:59:58;;;;;;;2.37;2.07;;;;;;;5.31;54.38;94324.38;5030322;28;20222;-77
2021/01/21 01:02:24;;;;;;;2.90;2.10;;;;;;;5.34;53.92;94322.28;5030282;28;20216;-76
2021/01/21 01:04:51;;;;;;;2.20;2.00;;;;;;;5.39;54.04;94327.63;5029877;28;20281;-76
2021/01/21 01:07:17;;;;;;;2.00;1.80;;;;;;;5.45;53.82;94334.59;5030142;28;20195;-76
2021/01/21 01:09:43;;;;;;;2.50;2.27;;;;;;;5.54;53.58;94337.88;5030218;28;20624;-76
2021/01/21 01:12:09;;;;;;;2.63;2.23;;;;;;;5.53;53.00;94329.41;5030859;28;20198;-77
2021/01/21 01:14:35;;;;;;;4.13;3.33;;;;;;;5.43;52.42;94318.66;5030150;28;20244;-77
2021/01/21 01:17:01;;;;;;;2.47;2.00;;;;;;;5.33;53.10;94315.59;5030544;28;20222;-77
2021/01/21 01:19:27;;;;;;;2.43;2.00;;;;;;;5.27;52.91;94302.72;5029928;28;20738;-77
2021/01/21 01:21:53;;;;;;;2.73;2.50;;;;;;;5.18;54.11;94299.50;5030030;28;20245;-75
2021/01/21 01:24:21;;;;;;;2.73;2.03;;;;;;;5.22;54.13;94298.94;5029695;28;20692;-77
2021/01/21 01:26:47;;;;;;;2.53;2.13;;;;;;;5.31;54.14;94291.22;5030398;28;20194;-77
2021/01/21 01:29:13;;;;;;;3.60;2.40;;;;;;;5.39;54.53;94296.22;5030104;28;20233;-77
2021/01/21 01:31:39;;;;;;;3.47;2.23;;;;;;;5.45;54.57;94283.53;5029698;28;20241;-77
2021/01/21 01:34:05;;;;;;;2.50;2.30;;;;;;;5.46;54.80;94280.03;5029435;28;20315;-77
2021/01/21 01:36:31;;;;;;;3.07;2.40;;;;;;;5.51;54.81;94287.94;5029559;28;20593;-77
2021/01/21 01:38:58;;;;;;;3.80;2.57;;;;;;;5.54;54.84;94290.16;5029809;28;20199;-77
2021/01/21 01:41:27;;;;;;;2.73;2.50;;;;;;;5.58;55.07;94290.56;5029889;28;20253;-77
2021/01/21 01:43:53;;;;;;;3.00;2.70;;;;;;;5.57;55.48;94291.56;5029582;28;20194;-77
2021/01/21 01:46:19;;;;;;;3.23;2.93;;;;;;;5.58;55.50;94300.00;5029831;28;20727;-76
2021/01/21 01:48:45;;;;;;;3.07;2.73;;;;;;;5.58;55.56;94305.88;5029762;28;20236;-77
2021/01/21 01:51:11;;;;;;;6.33;2.63;;;;;;;5.60;55.85;94323.59;5029753;28;20226;-77
2021/01/21 01:53:37;;;;;;;2.97;2.60;;;;;;;5.57;55.28;94321.41;5033495;28;20201;-77
2021/01/21 01:56:04;;;;;;;3.30;2.70;;;;;;;5.53;55.59;94323.50;5033302;28;20202;-77
2021/01/21 01:58:32;;;;;;;3.10;2.40;;;;;;;5.53;55.60;94328.63;5033654;28;20221;-77
2021/01/21 02:00:59;;;;;;;3.63;2.87;;;;;;;5.53;55.45;94341.38;5033307;28;20233;-77
2021/01/21 02:03:25;;;;;;;3.60;2.80;;;;;;;5.51;55.85;94345.88;5033227;28;20202;-77
2021/01/21 02:05:52;;;;;;;3.03;2.60;;;;;;;5.48;55.41;94346.22;5033346;28;20202;-76
2021/01/21 02:08:21;;;;;;;2.97;2.50;;;;;;;5.43;56.04;94340.84;5033479;28;20277;-77
2021/01/21 02:10:48;;;;;;;2.70;2.20;;;;;;;5.32;55.93;94339.53;5033332;28;20222;-77
2021/01/21 02:13:29;;;;;;;3.70;2.60;;;;;;;5.22;55.66;94337.22;5033428;28;20248;-77
2021/01/21 02:16:07;;;;;;;3.63;2.67;;;;;;;5.08;55.63;94345.63;5034707;28;20198;-77
2021/01/21 02:18:42;;;;;;;3.03;2.60;;;;;;;5.04;56.45;94348.69;5033215;28;20214;-77
2021/01/21 02:21:57;;;;;;;2.97;2.50;;;;;;;4.97;56.55;94353.72;5032825;28;20747;-77
2021/01/21 02:25:02;;;;;;;4.40;4.00;;;;;;;4.96;56.48;94354.69;5032853;28;20215;-77
2021/01/21 02:27:40;;;;;;;6.77;5.63;;;;;;;4.93;57.05;94355.03;5033250;28;20206;-77
2021/01/21 02:30:15;;;;;;;6.07;4.77;;;;;;;4.93;56.38;94346.56;5032354;28;20222;-77
2021/01/21 02:32:52;;;;;;;6.03;4.53;;;;;;;4.74;57.13;94345.28;5033338;28;20201;-77
2021/01/21 02:35:22;;;;;;;6.67;4.60;;;;;;;4.70;57.02;94334.66;5032721;28;20202;-77
2021/01/21 02:37:54;;;;;;;5.90;4.60;;;;;;;4.72;56.67;94326.81;5033076;28;20264;-77
2021/01/21 02:40:21;;;;;;;5.77;4.70;;;;;;;4.71;57.03;94325.25;5032042;28;20225;-76
2021/01/21 02:42:48;;;;;;;5.70;4.80;;;;;;;4.71;57.61;94323.47;5032812;28;20348;-77
2021/01/21 02:45:15;;;;;;;5.80;5.20;;;;;;;4.75;57.26;94308.66;5032378;28;20198;-77
2021/01/21 02:47:41;;;;;;;6.07;5.33;;;;;;;4.78;57.55;94304.00;5032988;28;20256;-77
2021/01/21 02:50:09;;;;;;;5.97;4.90;;;;;;;4.75;57.62;94308.66;5031895;28;20225;-77
2021/01/21 02:52:40;;;;;;;8.10;5.93;;;;;;;4.73;57.79;94295.28;5033155;28;20292;-77
2021/01/21 02:55:21;;;;;;;7.20;5.70;;;;;;;4.51;58.29;94297.66;5031963;28;20199;-77
2021/01/21 02:57:55;;;;;;;7.60;5.20;;;;;;;4.49;58.54;94298.78;5032575;28;20222;-77
2021/01/21 03:00:21;;;;;;;6.43;5.40;;;;;;;4.52;58.37;94298.47;5031934;28;20380;-76
2021/01/21 03:02:51;;;;;;;5.67;4.87;;;;;;;4.66;58.32;94300.25;5031735;28;20673;-76
2021/01/21 03:05:19;;;;;;;6.83;5.30;;;;;;;4.78;58.41;94309.09;5032113;28;20541;-76
2021/01/21 03:07:48;;;;;;;5.90;5.30;;;;;;;4.86;58.00;94300.56;5032604;28;20281;-77
2021/01/21 03:10:18;;;;;;;8.57;5.83;;;;;;;4.88;57.94;94305.50;5032194;28;20218;-76
2021/01/21 03:12:44;;;;;;;6.97;5.47;;;;;;;4.87;58.30;94304.69;5032422;28;20202;-76
2021/01/21 03:15:10;;;;;;;7.70;6.20;;;;;;;4.85;58.06;94301.53;5032195;28;20680;-77
2021/01/21 03:17:36;;;;;;;9.23;7.07;;;;;;;4.83;58.28;94314.44;5031915;28;20288;-77
2021/01/21 03:20:03;;;;;;;8.80;7.30;;;;;;;4.83;58.21;94319.53;5031549;28;20721;-76
2021/01/21 03:22:29;;;;;;;11.43;8.07;;;;;;;4.75;58.54;94326.50;5032706;28;20209;-76
2021/01/21 03:24:55;;;;;;;9.87;7.67;;;;;;;4.64;59.05;94329.44;5032144;28;20666;-76
2021/01/21 03:27:21;;;;;;;9.07;7.63;;;;;;;4.62;58.82;94324.50;5031763;28;20224;-77
2021/01/21 03:29:47;;;;;;;10.53;7.87;;;;;;;4.62;58.69;94321.94;5031995;28;20198;-77
2021/01/21 03:32:13;;;;;;;9.27;8.10;;;;;;;4.62;58.81;94321.94;5031565;28;20202;-76
2021/01/21 03:34:39;;;;;;;10.20;8.60;;;;;;;4.51;59.50;94328.25;5031550;28;20210;-77
2021/01/21 03:37:05;;;;;;;12.03;9.23;;;;;;;4.53;59.62;94327.28;5031835;28;20218;-77
2021/01/21 03:39:31;;;;;;;10.77;8.60;;;;;;;4.36;59.55;94331.72;5031766;28;20670;-76
2021/01/21 03:41:57;;;;;;;10.90;8.83;;;;;;;4.24;59.89;94333.81;5031791;28;20229;-76
2021/01/21 03:44:23;;;;;;;11.57;9.30;;;;;;;4.33;59.84;94324.41;5031214;28;20194;-76
2021/01/21 03:46:49;;;;;;;11.93;9.43;;;;;;;4.40;59.70;94317.69;5031716;28;20692;-76
2021/01/21 03:49:15;;;;;;;11.33;9.23;;;;;;;4.35;59.80;94318.16;5031339;28;20256;-77
2021/01/21 03:51:41;;;;;;;12.17;9.23;;;;;;;4.42;60.12;94323.41;5031411;28;20836;-77
2021/01/21 03:54:07;;;;;;;11.83;9.30;;;;;;;4.43;60.40;94330.03;5031781;28;20233;-77
2021/01/21 03:56:33;;;;;;;11.53;9.70;;;;;;;4.47;59.78;94328.75;5031478;28;20305;-77
2021/01/21 03:59:00;;;;;;;13.47;9.77;;;;;;;4.49;59.82;94329.38;5031662;28;20689;-77
2021/01/21 04:01:26;;;;;;;10.40;8.67;;;;;;;4.48;60.26;94341.31;5030771;28;20226;-77
2021/01/21 04:03:51;;;;;;;13.57;9.27;;;;;;;4.48;60.38;94337.97;5030993;28;20256;-76
2021/01/21 04:06:17;;;;;;;12.70;9.50;;;;;;;4.49;60.32;94337.03;5031135;28;20201;-76
2021/01/21 04:08:43;;;;;;;12.60;9.73;;;;;;;4.46;60.06;94337.34;5031053;28;20249;-77
2021/01/21 04:11:09;;;;;;;9.93;8.70;;;;;;;4.42;60.31;94341.22;5031219;28;20222;-77
2021/01/21 04:13:35;;;;;;;14.93;9.57;;;;;;;4.38;60.43;94333.13;5030619;28;20583;-77
2021/01/21 04:16:02;;;;;;;11.37;9.27;;;;;;;4.36;60.68;94337.59;5030514;28;20213;-77
2021/01/21 04:18:28;;;;;;;11.03;8.80;;;;;;;4.31;60.81;94331.41;5030549;28;20233;-77
2021/01/21 04:20:54;;;;;;;10.93;8.83;;;;;;;4.31;60.98;94329.66;5030690;28;20226;-77
2021/01/21 04:23:20;;;;;;;11.17;8.63;;;;;;;4.31;60.76;94323.78;5030712;28;20237;-77
2021/01/21 04:25:46;;;;;;;10.10;8.80;;;;;;;4.32;60.88;94323.59;5030476;28;20205;-77
2021/01/21 04:28:12;;;;;;;10.27;7.97;;;;;;;4.29;61.57;94326.47;5030364;28;20594;-77
2021/01/21 04:30:38;;;;;;;10.80;7.63;;;;;;;4.26;61.21;94321.72;5030703;28;20226;-76
2021/01/21 04:33:05;;;;;;;8.40;7.47;;;;;;;4.27;60.72;94323.31;5030788;28;20244;-77
2021/01/21 04:35:31;;;;;;;9.60;7.10;;;;;;;4.25;61.43;94326.97;5030370;28;20212;-77
2021/01/21 04:37:58;;;;;;;10.07;7.33;;;;;;;4.34;61.05;94323.44;5030310;28;20229;-77
2021/01/21 04:40:25;;;;;;;8.60;6.43;;;;;;;4.42;60.94;94318.28;5030128;28;20214;-77
2021/01/21 04:42:51;;;;;;;8.90;5.60;;;;;;;4.48;60.61;94313.28;5030372;28;20623;-77
2021/01/21 04:45:18;;;;;;;6.40;5.70;;;;;;;4.48;60.58;94315.06;5030355;28;20209;-77
2021/01/21 04:47:44;;;;;;;8.20;5.77;;;;;;;4.51;60.20;94315.50;5030844;28;20194;-77
2021/01/21 04:50:12;;;;;;;6.83;5.57;;;;;;;4.57;60.26;94314.03;5028370;28;20221;-77
2021/01/21 04:52:42;;;;;;;7.30;5.77;;;;;;;4.51;60.57;94312.97;5031345;28;20202;-77
2021/01/21 04:55:12;;;;;;;8.00;6.03;;;;;;;4.45;60.75;94318.72;5030146;28;20194;-76
2021/01/21 04:57:43;;;;;;;10.17;6.10;;;;;;;4.48;61.12;94335.44;5031098;28;20300;-77
2021/01/21 05:00:10;;;;;;;9.37;6.73;;;;;;;4.48;61.13;94333.69;5031991;28;20279;-77
2021/01/21 05:02:40;;;;;;;8.67;6.67;;;;;;;4.50;60.95;94336.06;5032056;28;20205;-77
2021/01/21 05:05:08;;;;;;;8.87;7.23;;;;;;;4.43;60.71;94330.84;5031943;28;20202;-76
2021/01/21 05:07:35;;;;;;;9.50;6.87;;;;;;;4.42;60.19;94324.19;5031509;28;20187;-76
2021/01/21 05:10:02;;;;;;;8.77;6.67;;;;;;;4.26;61.88;94334.47;5031182;28;20260;-76
2021/01/21 05:12:28;;;;;;;8.20;6.80;;;;;;;4.22;61.04;94329.91;5030248;28;20198;-76
2021/01/21 05:14:54;;;;;;;7.93;5.53;;;;;;;4.49;80.98;94332.72;5035075;28;20255;-76
2021/01/21 05:17:20;;;;;;;6.07;4.83;;;;;;;5.17;87.34;94331.06;5031788;28;20218;-76
2021/01/21 05:19:47;;;;;;;8.80;6.40;;;;;;;5.21;62.06;94327.97;5030290;28;20214;-76
2021/01/21 05:22:15;;;;;;;8.47;6.20;;;;;;;4.93;61.06;94331.28;5030251;28;20730;-77
2021/01/21 05:24:44;;;;;;;7.13;6.30;;;;;;;4.82;60.99;94317.97;5030171;28;20301;-77
2021/01/21 05:27:10;;;;;;;7.97;5.90;;;;;;;4.78;61.39;94326.16;5033256;28;20202;-77
2021/01/21 05:29:36;;;;;;;8.90;6.13;;;;;;;4.70;60.97;94323.66;5015307;28;20199;-77
2021/01/21 05:32:05;;;;;;;9.23;6.53;;;;;;;4.57;61.72;94321.69;5014278;28;20212;-77
2021/01/21 05:34:32;;;;;;;7.23;6.13;;;;;;;4.46;61.81;94325.41;5014189;28;20289;-76
2021/01/21 05:36:58;;;;;;;7.63;6.20;;;;;;;4.45;61.77;94325.56;5014069;28;20738;-77
2021/01/21 05:39:23;;;;;;;10.63;6.30;;;;;;;4.43;61.84;94332.59;5014231;28;20214;-76
2021/01/21 05:41:52;;;;;;;6.80;6.10;;;;;;;4.45;61.96;94328.91;5014228;28;20218;-76
2021/01/21 05:44:18;;;;;;;7.33;6.23;;;;;;;4.49;62.25;94322.53;5013829;28;20227;-77
2021/01/21 05:46:44;;;;;;;12.20;6.47;;;;;;;4.49;61.92;94332.72;5013819;28;20237;-77
2021/01/21 05:49:11;;;;;;;7.87;6.23;;;;;;;4.50;61.70;94325.88;5014849;28;20194;-79
2021/01/21 05:51:37;;;;;;;8.83;6.73;;;;;;;4.52;62.39;94329.03;5030759;28;20725;-77
2021/01/21 05:54:04;;;;;;;9.77;6.90;;;;;;;4.47;62.46;94327.00;5027559;28;20872;-77
2021/01/21 05:56:32;;;;;;;7.30;6.50;;;;;;;4.50;62.20;94336.84;5025203;28;20202;-77
2021/01/21 05:58:59;;;;;;;9.03;6.73;;;;;;;4.49;62.40;94332.72;5030636;28;20218;-77
2021/01/21 06:01:26;;;;;;;10.40;6.97;;;;;;;4.50;62.43;94333.50;5031374;28;20222;-77
2021/01/21 06:03:52;;;;;;;8.63;7.00;;;;;;;4.43;62.84;94340.25;5032587;28;20202;-78
2021/01/21 06:06:25;;;;;;;10.00;7.27;;;;;;;4.46;62.33;94340.69;5031754;28;20608;-77
2021/01/21 06:08:51;;;;;;;9.10;6.50;;;;;;;4.49;62.74;94332.72;5030204;28;20202;-77
2021/01/21 06:11:19;;;;;;;8.60;6.63;;;;;;;4.53;62.57;94328.09;5028643;28;20221;-77
2021/01/21 06:13:45;;;;;;;9.40;6.90;;;;;;;4.57;62.53;94331.09;5030145;28;20225;-76
2021/01/21 06:16:12;;;;;;;8.30;6.23;;;;;;;4.62;62.41;94332.13;5032977;28;20199;-77
2021/01/21 06:18:38;;;;;;;8.83;6.67;;;;;;;4.59;62.25;94334.25;5033278;28;20232;-76
2021/01/21 06:21:06;;;;;;;7.27;6.13;;;;;;;4.64;62.21;94332.78;5033711;28;20733;-77
2021/01/21 06:23:33;;;;;;;8.67;6.73;;;;;;;4.67;62.36;94337.53;5035258;28;20191;-77
2021/01/21 06:26:02;;;;;;;7.97;6.97;;;;;;;4.64;62.67;94329.44;5033243;28;20710;-77
2021/01/21 06:28:30;;;;;;;226.83;172.00;;;;;;;4.64;62.99;94321.78;5033774;28;20198;-78
2021/01/21 06:30:57;;;;;;;20.37;16.23;;;;;;;4.69;62.65;94329.72;5033211;28;20210;-77
2021/01/21 06:33:29;;;;;;;14.93;10.30;;;;;;;4.71;63.01;94326.03;5033803;28;20201;-78
2021/01/21 06:36:01;;;;;;;10.60;7.97;;;;;;;4.72;62.86;94331.94;5033598;28;20428;-78
2021/01/21 06:38:31;;;;;;;7.70;6.13;;;;;;;4.72;62.64;94325.06;5027118;28;20272;-78
2021/01/21 06:41:00;;;;;;;11.93;7.97;;;;;;;4.68;63.32;94325.56;5033233;28;20744;-80
2021/01/21 06:43:31;;;;;;;8.10;6.80;;;;;;;4.70;63.05;94326.19;5031846;28;20583;-78
2021/01/21 06:45:57;;;;;;;9.40;6.87;;;;;;;4.72;62.87;94327.63;5033485;28;20207;-78
2021/01/21 06:48:25;;;;;;;7.53;6.43;;;;;;;4.72;63.17;94325.06;5032902;28;20191;-77
2021/01/21 06:50:52;;;;;;;8.27;6.80;;;;;;;4.68;63.83;94326.38;5032061;28;20218;-78
2021/01/21 06:53:18;;;;;;;8.27;6.27;;;;;;;4.64;64.12;94334.53;5033397;28;20194;-78
2021/01/21 06:55:48;;;;;;;9.97;7.00;;;;;;;4.67;63.58;94337.53;5033064;28;20198;-77
2021/01/21 06:58:14;;;;;;;9.27;6.33;;;;;;;4.67;63.06;94329.09;5033136;28;20275;-77
2021/01/21 07:00:42;;;;;;;9.63;6.37;;;;;;;4.66;63.52;94324.94;5033006;28;20222;-77
2021/01/21 07:03:28;;;;;;;9.03;6.43;;;;;;;4.65;63.73;94324.16;5030200;28;20244;-76
2021/01/21 07:06:01;;;;;;;7.27;6.13;;;;;;;4.71;63.61;94331.13;5032205;28;20348;-77
2021/01/21 07:08:28;;;;;;;24.53;18.67;;;;;;;4.71;64.00;94328.56;5033084;28;20265;-77
2021/01/21 07:10:58;;;;;;;17.27;11.63;;;;;;;4.80;63.73;94330.13;5032823;28;20214;-78
2021/01/21 07:13:26;;;;;;;8.47;6.47;;;;;;;4.90;62.53;94322.22;5031401;28;20229;-77
2021/01/21 07:15:56;;;;;;;9.63;6.67;;;;;;;4.96;63.15;94328.38;5027264;28;20199;-77
2021/01/21 07:18:24;;;;;;;8.00;6.10;;;;;;;5.03;62.19;94324.16;5025983;28;20210;-75
2021/01/21 07:21:11;;;;;;;5.43;4.37;;;;;;;5.16;61.09;94322.63;5031111;28;20226;-77
2021/01/21 07:23:46;;;;;;;5.03;3.40;;;;;;;5.32;59.68;94325.97;5032672;28;20236;-77
2021/01/21 07:26:29;;;;;;;3.93;2.70;;;;;;;5.50;58.61;94327.22;5032720;28;20208;-78
2021/01/21 07:29:04;;;;;;;5.13;3.73;;;;;;;5.78;65.30;94327.34;5030471;28;20194;-77
2021/01/21 07:32:05;;;;;;;4.23;3.60;;;;;;;6.20;66.92;94331.81;5031904;28;20214;-78
2021/01/21 07:34:47;;;;;;;3.87;3.17;;;;;;;6.63;66.92;94329.28;5030403;28;20194;-77
2021/01/21 07:37:20;;;;;;;3.00;2.70;;;;;;;6.91;62.56;94327.56;5017274;28;20212;-77
2021/01/21 07:39:48;;;;;;;8.97;6.83;;;;;;;7.11;58.25;94325.16;5031918;28;20201;-77
2021/01/21 07:42:14;;;;;;;8.07;6.03;;;;;;;7.10;54.24;94330.47;5031385;28;20194;-77
2021/01/21 07:44:57;;;;;;;8.43;6.10;;;;;;;7.01;54.43;94329.81;5029948;28;20205;-77
2021/01/21 07:47:30;;;;;;;6.70;4.67;;;;;;;6.92;55.24;94339.38;5017868;28;20252;-77
2021/01/21 07:50:32;;;;;;;6.87;4.20;;;;;;;6.86;55.88;94342.69;5030935;28;20202;-77
2021/01/21 07:53:01;;;;;;;5.90;4.17;;;;;;;6.80;57.07;94351.06;5030907;28;20197;-77
2021/01/21 07:55:28;;;;;;;5.80;4.60;;;;;;;6.72;57.75;94346.09;5030320;28;20198;-78
2021/01/21 07:57:54;;;;;;;5.80;4.80;;;;;;;6.65;57.91;94341.88;5030523;28;20264;-77
2021/01/21 08:00:21;;;;;;;5.57;4.43;;;;;;;6.67;57.69;94342.50;5030477;28;20253;-76
2021/01/21 08:02:48;;;;;;;7.43;4.57;;;;;;;6.62;57.95;94349.91;5031954;28;20285;-78
2021/01/21 08:05:15;;;;;;;5.10;4.47;;;;;;;6.56;57.71;94342.00;5031028;28;20588;-76
2021/01/21 08:07:48;;;;;;;4.57;3.97;;;;;;;6.49;57.40;94341.16;5030937;28;20202;-77
2021/01/21 08:10:18;;;;;;;6.00;4.10;;;;;;;6.52;57.81;94337.44;5030743;28;20225;-78
2021/01/21 08:12:50;;;;;;;4.97;3.67;;;;;;;6.57;57.84;94335.13;5030658;28;20201;-77
2021/01/21 08:15:18;;;;;;;5.60;4.40;;;;;;;6.61;58.47;94336.34;5028890;28;20195;-77
2021/01/21 08:17:44;;;;;;;5.40;4.10;;;;;;;6.64;57.96;94330.88;5027439;28;20301;-77
2021/01/21 08:20:11;;;;;;;4.73;4.20;;;;;;;6.65;57.93;94326.53;5029734;28;20957;-77
2021/01/21 08:22:54;;;;;;;5.20;3.87;;;;;;;6.73;56.15;94324.66;5030573;28;20202;-77
2021/01/21 08:25:23;;;;;;;7.07;4.07;;;;;;;6.79;56.84;94308.56;5026309;28;20713;-76
2021/01/21 08:27:50;;;;;;;3.90;2.80;;;;;;;6.81;57.40;94321.16;5029527;28;20256;-77
2021/01/21 08:30:22;;;;;;;3.73;2.87;;;;;;;6.94;56.20;94329.75;5030067;28;20222;-77
2021/01/21 08:32:51;;;;;;;2.93;2.10;;;;;;;7.11;53.46;94321.81;5030108;28;20247;-77
2021/01/21 08:35:21;;;;;;;9.07;4.60;;;;;;;7.28;53.29;94313.66;5029382;28;20202;-78
2021/01/21 08:37:48;;;;;;;4.40;2.30;;;;;;;7.43;50.82;94317.88;5030421;28;20261;-77
2021/01/21 08:40:16;;;;;;;5.00;2.17;;;;;;;7.61;50.91;94316.41;5030215;28;20214;-78
2021/01/21 08:42:48;;;;;;;4.73;2.10;;;;;;;7.76;51.03;94308.59;5028927;28;20202;-77
2021/01/21 08:45:15;;;;;;;4.70;1.90;;;;;;;7.86;49.88;94309.03;5027409;28;20225;-78
2021/01/21 08:47:45;;;;;;;3.67;1.30;;;;;;;7.98;48.39;94306.72;5030301;28;20850;-76
2021/01/21 08:50:13;;;;;;;1.40;1.30;;;;;;;8.14;47.90;94305.56;5030262;28;20240;-77
2021/01/21 08:52:58;;;;;;;3.80;1.27;;;;;;;8.30;46.31;94302.66;5029509;28;20662;-78
2021/01/21 08:55:36;;;;;;;1.73;1.10;;;;;;;8.45;45.90;94297.41;5020458;28;20582;-78
2021/01/21 08:58:03;;;;;;;2.70;0.90;;;;;;;8.61;45.42;94299.59;5030544;28;20221;-78
2021/01/21 09:00:32;;;;;;;2.70;1.17;;;;;;;8.86;44.73;94298.03;5030138;28;20218;-78
2021/01/21 09:02:58;;;;;;;3.13;0.90;;;;;;;9.15;44.02;94296.06;5029062;28;20202;-76
2021/01/21 09:05:24;;;;;;;3.73;1.10;;;;;;;9.34;42.80;94288.31;5029645;28;20194;-77
2021/01/21 09:07:51;;;;;;;0.80;0.80;;;;;;;9.51;42.12;94285.31;5024313;28;20261;-78
2021/01/21 09:10:17;;;;;;;2.57;1.20;;;;;;;9.60;42.33;94291.84;5023385;28;20210;-77
2021/01/21 09:12:43;;;;;;;3.33;1.00;;;;;;;9.74;41.78;94295.94;5029709;28;20225;-77
2021/01/21 09:15:12;;;;;;;0.97;0.80;;;;;;;9.88;41.52;94294.88;5029025;28;20198;-78
2021/01/21 09:17:39;;;;;;;1.90;1.10;;;;;;;10.05;41.28;94298.56;5029532;28;20218;-77
2021/01/21 09:20:22;;;;;;;7.20;1.20;;;;;;;10.19;40.79;94298.56;5028366;28;20217;-77
2021/01/21 09:22:49;;;;;;;3.80;1.17;;;;;;;10.43;40.48;94312.47;5029354;28;20738;-77
2021/01/21 09:25:22;;;;;;;2.77;1.07;;;;;;;10.61;40.36;94308.19;5029403;28;20189;-77
2021/01/21 09:27:52;;;;;;;1.93;0.90;;;;;;;10.73;39.20;94310.91;5030026;28;20580;-77
2021/01/21 09:30:20;;;;;;;1.07;1.00;;;;;;;10.95;39.34;94308.78;5029274;28;20626;-77
2021/01/21 09:32:46;;;;;;;1.33;1.03;;;;;;;11.18;40.75;94321.06;5029202;28;20202;-77
2021/01/21 09:35:13;;;;;;;1.17;0.80;;;;;;;11.30;39.86;94312.44;5028639;28;20722;-77
2021/01/21 09:37:41;;;;;;;1.70;0.90;;;;;;;11.43;39.45;94324.41;5029392;28;20253;-78
2021/01/21 09:40:09;;;;;;;1.87;1.23;;;;;;;11.35;39.47;94309.25;5028715;28;20218;-77
2021/01/21 09:42:36;;;;;;;2.97;1.13;;;;;;;11.32;37.53;94322.53;5029204;28;20194;-78
2021/01/21 09:45:03;;;;;;;1.57;1.03;;;;;;;11.39;37.70;94323.25;5023433;28;20697;-77
2021/01/21 09:47:30;;;;;;;0.93;0.87;;;;;;;11.75;36.96;94318.13;5028894;28;20565;-77
2021/01/21 09:49:56;;;;;;;1.83;0.80;;;;;;;11.91;37.13;94322.00;5028784;28;20591;-76
2021/01/21 09:52:22;;;;;;;1.00;0.90;;;;;;;11.86;36.61;94323.63;5028876;28;20272;-77
2021/01/21 09:54:48;;;;;;;2.33;0.90;;;;;;;11.83;36.33;94327.41;5027799;28;20209;-77
2021/01/21 09:57:14;;;;;;;4.37;1.00;;;;;;;11.90;36.41;94324.78;5028440;28;20201;-77
2021/01/21 09:59:40;;;;;;;7.10;1.00;;;;;;;12.00;36.54;94331.00;5028740;28;20218;-76
2021/01/21 10:02:06;;;;;;;2.50;0.93;;;;;;;12.16;36.27;94323.66;5028344;28;20225;-76
2021/01/21 10:04:35;;;;;;;2.03;1.00;;;;;;;12.36;35.83;94329.38;5027855;28;20190;-77
2021/01/21 10:07:01;;;;;;;1.53;0.90;;;;;;;12.47;35.33;94322.72;5028966;28;20669;-77
2021/01/21 10:09:27;;;;;;;1.00;0.90;;;;;;;12.54;36.30;94320.81;5029064;28;20198;-77
2021/01/21 10:11:53;;;;;;;2.30;0.80;;;;;;;12.55;35.11;94324.97;5028915;28;20218;-77
2021/01/21 10:14:19;;;;;;;1.70;1.00;;;;;;;12.51;35.53;94323.84;5029783;28;20846;-78
2021/01/21 10:16:45;;;;;;;2.13;1.10;;;;;;;12.54;35.75;94326.75;5031858;28;20298;-77
2021/01/21 10:19:11;;;;;;;1.53;0.80;;;;;;;12.55;34.86;94327.53;5032417;28;20242;-78
2021/01/21 10:21:38;;;;;;;1.67;0.90;;;;;;;12.58;35.41;94329.69;5031703;28;20222;-77
2021/01/21 10:24:05;;;;;;;0.97;0.80;;;;;;;12.63;35.67;94324.66;5031454;28;20568;-77
2021/01/21 10:26:31;;;;;;;5.30;3.10;;;;;;;12.72;36.97;94331.88;5031070;28;20218;-77
2021/01/21 10:28:57;;;;;;;3.83;3.27;;;;;;;12.97;36.28;94331.72;5032002;28;20316;-77
2021/01/21 10:31:23;;;;;;;1.87;1.50;;;;;;;13.17;35.54;94333.25;5031877;28;20241;-77
2021/01/21 10:33:49;;;;;;;2.20;0.80;;;;;;;13.26;34.89;94335.28;5031666;28;20194;-77
2021/01/21 10:36:14;;;;;;;1.13;1.00;;;;;;;13.30;34.36;94333.81;5032339;28;20208;-77
2021/01/21 10:38:42;;;;;;;0.90;0.90;;;;;;;13.36;33.90;94337.31;5031442;28;20605;-77
2021/01/21 10:41:08;;;;;;;2.17;0.83;;;;;;;13.34;34.19;94339.31;5031320;28;20636;-77
2021/01/21 10:43:34;;;;;;;1.23;0.90;;;;;;;13.27;34.17;94334.28;5027348;28;20194;-77
2021/01/21 10:46:00;;;;;;;1.57;1.47;;;;;;;13.33;33.89;94341.13;5031694;28;20584;-78
2021/01/21 10:48:27;;;;;;;1.90;0.80;;;;;;;13.28;33.81;94335.03;5032181;28;20205;-77
2021/01/21 10:50:53;;;;;;;2.77;0.90;;;;;;;13.33;33.20;94327.41;5032087;28;20222;-78
2021/01/21 10:53:19;;;;;;;0.73;0.70;;;;;;;13.38;33.26;94325.75;5032377;28;20245;-77
2021/01/21 10:55:46;;;;;;;0.83;0.80;;;;;;;13.41;32.97;94320.13;5031512;28;20658;-78
2021/01/21 10:58:13;;;;;;;3.70;0.97;;;;;;;13.54;33.28;94320.91;5032854;28;20229;-77
2021/01/21 11:00:40;;;;;;;2.57;0.80;;;;;;;13.62;33.75;94313.59;5031252;28;20720;-78
2021/01/21 11:03:06;;;;;;;0.90;0.83;;;;;;;13.71;33.35;94314.81;5031157;28;20237;-77
2021/01/21 11:05:32;;;;;;;2.30;0.90;;;;;;;13.83;32.95;94307.84;5029772;28;20205;-77
2021/01/21 11:07:58;;;;;;;0.83;0.80;;;;;;;13.94;32.68;94308.81;5030968;28;20577;-78
2021/01/21 11:10:24;;;;;;;0.80;0.70;;;;;;;13.96;31.68;94311.19;5031228;28;20221;-78
2021/01/21 11:12:51;;;;;;;3.63;0.90;;;;;;;14.00;31.67;94304.53;5030598;28;20205;-78
2021/01/21 11:15:17;;;;;;;4.30;0.90;;;;;;;14.10;31.63;94302.13;5029911;28;20202;-81
2021/01/21 11:17:44;;;;;;;1.43;0.90;;;;;;;14.26;31.88;94301.41;5031630;28;20198;-77
2021/01/21 11:20:12;;;;;;;0.80;0.80;;;;;;;14.29;31.47;94290.59;5030176;28;20233;-78
2021/01/21 11:22:38;;;;;;;1.60;0.97;;;;;;;14.38;31.44;94291.81;5031102;28;20202;-78
2021/01/21 11:25:07;;;;;;;3.90;1.13;;;;;;;14.49;31.80;94296.19;5030815;28;20226;-77
2021/01/21 11:27:33;;;;;;;2.57;1.00;;;;;;;14.57;31.07;94289.84;5031888;28;20280;-77
2021/01/21 11:30:00;;;;;;;1.20;0.73;;;;;;;14.54;31.17;94295.50;5031062;28;20202;-78
2021/01/21 11:32:26;;;;;;;0.90;0.90;;;;;;;14.55;30.13;94285.91;5032248;28;20198;-78
2021/01/21 11:34:52;;;;;;;2.00;0.90;;;;;;;14.49;31.21;94285.81;5031430;28;20198;-78
2021/01/21 11:37:18;;;;;;;1.97;0.90;;;;;;;14.50;30.78;94284.81;5031508;28;20245;-78
2021/01/21 11:39:44;;;;;;;2.37;0.80;;;;;;;14.62;31.55;94281.41;5031780;28;20214;-78
2021/01/21 11:42:10;;;;;;;1.10;0.80;;;;;;;14.52;30.60;94274.22;5031127;28;20207;-77
2021/01/21 11:44:35;;;;;;;6.70;3.77;;;;;;;14.58;31.51;94281.06;5029265;28;20205;-78